createdAt,value
2018-11-10T00:00:50.763Z,20.10
2018-11-10T00:03:20.271Z,19.17
2018-11-10T00:05:49.749Z,19.10
2018-11-10T00:08:19.465Z,17.27
2018-11-10T00:10:48.966Z,19.00
2018-11-10T00:13:18.496Z,18.62
2018-11-10T00:15:47.986Z,19.90
2018-11-10T00:18:17.539Z,20.43
2018-11-10T00:20:47.001Z,19.25
2018-11-10T00:23:16.662Z,18.92
2018-11-10T00:25:46.248Z,19.07
2018-11-10T00:28:15.772Z,19.57
2018-11-10T00:30:45.316Z,20.00
2018-11-10T00:33:14.834Z,18.27
2018-11-10T00:35:44.335Z,21.27
2018-11-10T00:38:13.823Z,19.62
2018-11-10T00:40:43.389Z,17.83
2018-11-10T00:43:12.930Z,21.60
2018-11-10T00:45:42.460Z,19.12
2018-11-10T00:48:12.200Z,19.85
2018-11-10T00:50:41.773Z,20.32
2018-11-10T00:53:11.363Z,19.02
2018-11-10T00:55:40.896Z,19.55
2018-11-10T00:58:10.469Z,20.13
2018-11-10T01:00:40.057Z,20.23
2018-11-10T01:03:09.605Z,20.50
2018-11-10T01:05:39.331Z,18.95
2018-11-10T01:08:08.848Z,18.87
2018-11-10T01:10:38.273Z,18.30
2018-11-10T01:13:07.996Z,18.27
2018-11-10T01:15:37.568Z,19.65
2018-11-10T01:18:07.252Z,19.25
2018-11-10T01:20:36.725Z,19.95
2018-11-10T01:23:06.501Z,20.32
2018-11-10T01:25:36.065Z,19.90
2018-11-10T01:28:05.630Z,21.23
2018-11-10T01:30:35.250Z,19.70
2018-11-10T01:33:04.785Z,19.60
2018-11-10T01:35:34.239Z,18.40
2018-11-10T01:38:03.853Z,19.17
2018-11-10T01:40:33.333Z,17.70
2018-11-10T01:43:02.795Z,19.97
2018-11-10T01:45:32.304Z,19.02
2018-11-10T01:48:01.808Z,21.12
2018-11-10T01:50:31.304Z,18.23
2018-11-10T01:53:00.881Z,19.55
2018-11-10T01:55:30.397Z,19.82
2018-11-10T01:57:59.938Z,18.75
2018-11-10T02:00:29.498Z,19.80
2018-11-10T02:02:59.077Z,20.20
2018-11-10T02:05:28.601Z,16.67
2018-11-10T02:07:58.192Z,17.63
2018-11-10T02:10:27.664Z,17.35
2018-11-10T02:12:57.199Z,16.50
2018-11-10T02:15:26.812Z,17.67
2018-11-10T02:17:57.117Z,17.35
2018-11-10T02:20:26.779Z,16.32
2018-11-10T02:22:56.319Z,18.75
2018-11-10T02:25:25.899Z,15.88
2018-11-10T02:27:56.104Z,15.80
2018-11-10T02:30:25.636Z,17.70
2018-11-10T02:32:55.083Z,16.80
2018-11-10T02:35:24.543Z,17.47
2018-11-10T02:37:54.118Z,16.40
2018-11-10T02:40:23.620Z,15.85
2018-11-10T02:42:53.256Z,15.83
2018-11-10T02:45:22.723Z,17.15
2018-11-10T02:47:52.163Z,16.57
2018-11-10T02:50:21.760Z,14.75
2018-11-10T02:52:51.302Z,16.73
2018-11-10T02:55:20.720Z,16.60
2018-11-10T02:57:50.322Z,18.37
2018-11-10T03:00:19.892Z,15.23
2018-11-10T03:02:49.384Z,17.10
2018-11-10T03:05:19.115Z,16.95
2018-11-10T03:07:48.607Z,16.05
2018-11-10T03:10:18.145Z,16.02
2018-11-10T03:12:47.664Z,16.85
2018-11-10T03:15:17.216Z,15.15
2018-11-10T03:17:46.699Z,16.10
2018-11-10T03:20:16.453Z,16.25
2018-11-10T03:22:46.282Z,14.03
2018-11-10T03:25:15.821Z,16.30
2018-11-10T03:27:45.316Z,16.55
2018-11-10T03:30:14.903Z,14.95
2018-11-10T03:32:44.382Z,15.05
2018-11-10T03:35:13.936Z,16.52
2018-11-10T03:37:43.424Z,14.00
2018-11-10T03:40:13.417Z,14.40
2018-11-10T03:42:42.926Z,16.05
2018-11-10T03:45:13.244Z,14.23
2018-11-10T03:47:42.775Z,14.07
2018-11-10T03:50:13.414Z,15.23
2018-11-10T03:52:43.159Z,14.33
2018-11-10T03:55:12.742Z,14.23
2018-11-10T03:57:42.330Z,14.95
2018-11-10T04:00:14.052Z,14.98
2018-11-10T04:02:44.727Z,16.90
2018-11-10T04:05:14.781Z,13.32
2018-11-10T04:07:45.108Z,12.95
2018-11-10T04:10:15.371Z,13.48
2018-11-10T04:12:44.826Z,15.08
2018-11-10T04:15:14.300Z,13.95
2018-11-10T04:17:43.830Z,13.70
2018-11-10T04:20:13.364Z,12.82
2018-11-10T04:22:42.881Z,14.83
2018-11-10T04:25:12.527Z,16.12
2018-11-10T04:27:42.076Z,14.68
2018-11-10T04:30:12.149Z,14.40
2018-11-10T04:32:41.638Z,15.13
2018-11-10T04:35:11.164Z,13.70
2018-11-10T04:37:40.707Z,12.25
2018-11-10T04:40:10.971Z,11.35
2018-11-10T04:42:40.979Z,13.50
2018-11-10T04:45:11.727Z,13.10
2018-11-10T04:47:41.331Z,13.83
2018-11-10T04:50:11.971Z,13.98
2018-11-10T04:52:42.156Z,14.23
2018-11-10T04:55:12.642Z,13.80
2018-11-10T04:57:42.447Z,14.07
2018-11-10T05:00:14.218Z,13.50
2018-11-10T05:02:44.774Z,12.05
2018-11-10T05:05:14.308Z,10.93
2018-11-10T05:07:43.849Z,12.97
2018-11-10T05:10:13.412Z,12.23
2018-11-10T05:12:42.885Z,13.93
2018-11-10T05:15:13.412Z,13.83
2018-11-10T05:17:43.057Z,11.90
2018-11-10T05:20:12.589Z,13.78
2018-11-10T05:22:42.318Z,12.93
2018-11-10T05:25:11.976Z,12.65
2018-11-10T05:27:41.466Z,12.15
2018-11-10T05:30:11.553Z,12.78
2018-11-10T05:32:41.004Z,13.87
2018-11-10T05:35:10.538Z,11.55
2018-11-10T05:37:40.042Z,12.33
2018-11-10T05:40:10.804Z,12.68
2018-11-10T05:42:40.607Z,12.85
2018-11-10T05:45:10.472Z,12.90
2018-11-10T05:47:40.099Z,11.45
2018-11-10T05:50:10.041Z,12.40
2018-11-10T05:52:39.524Z,12.20
2018-11-10T05:55:09.180Z,11.53
2018-11-10T05:57:39.497Z,14.35
2018-11-10T06:00:13.515Z,12.95
2018-11-10T06:02:43.411Z,13.08
2018-11-10T06:05:13.333Z,11.57
2018-11-10T06:07:42.792Z,12.50
2018-11-10T06:10:12.935Z,12.20
2018-11-10T06:12:42.796Z,11.80
2018-11-10T06:15:12.306Z,12.60
2018-11-10T06:17:41.808Z,13.32
2018-11-10T06:20:12.897Z,12.55
2018-11-10T06:22:42.444Z,12.63
2018-11-10T06:25:12.547Z,12.63
2018-11-10T06:27:42.056Z,12.93
2018-11-10T06:30:12.450Z,11.90
2018-11-10T06:32:42.037Z,11.50
2018-11-10T06:35:11.814Z,12.43
2018-11-10T06:37:42.383Z,12.55
2018-11-10T06:40:13.511Z,13.15
2018-11-10T06:42:43.700Z,12.95
2018-11-10T06:45:13.153Z,13.57
2018-11-10T06:47:42.588Z,12.03
2018-11-10T06:50:12.561Z,13.83
2018-11-10T06:52:42.118Z,12.73
2018-11-10T06:55:12.021Z,12.30
2018-11-10T06:57:41.619Z,13.60
2018-11-10T07:00:15.217Z,13.63
2018-11-10T07:02:44.980Z,11.90
2018-11-10T07:05:14.540Z,11.90
2018-11-10T07:07:44.032Z,11.40
2018-11-10T07:10:13.527Z,13.00
2018-11-10T07:12:42.987Z,13.35
2018-11-10T07:15:12.492Z,11.60
2018-11-10T07:20:21.662Z,12.68
2018-11-10T07:22:51.249Z,11.18
2018-11-10T07:25:20.780Z,12.80
2018-11-10T07:27:50.322Z,13.80
2018-11-10T07:30:19.925Z,11.50
2018-11-10T07:32:49.395Z,12.05
2018-11-10T07:35:18.834Z,13.07
2018-11-10T07:37:48.251Z,11.10
2018-11-10T07:40:17.849Z,11.65
2018-11-10T07:42:47.351Z,11.95
2018-11-10T07:45:17.179Z,11.28
2018-11-10T07:47:46.939Z,11.70
2018-11-10T07:50:16.498Z,10.55
2018-11-10T07:52:46.119Z,12.07
2018-11-10T07:55:16.268Z,11.25
2018-11-10T07:57:45.706Z,12.07
2018-11-10T08:00:16.606Z,8.60
2018-11-10T08:02:46.061Z,9.73
2018-11-10T08:05:16.208Z,10.70
2018-11-10T08:07:45.795Z,11.28
2018-11-10T08:10:15.901Z,9.60
2018-11-10T08:12:45.405Z,11.65
2018-11-10T08:15:16.167Z,9.15
2018-11-10T08:17:45.703Z,9.88
2018-11-10T08:20:15.369Z,10.50
2018-11-10T08:22:44.941Z,9.73
2018-11-10T08:25:15.237Z,8.95
2018-11-10T08:27:44.778Z,8.83
2018-11-10T08:30:15.107Z,9.30
2018-11-10T08:32:44.767Z,8.68
2018-11-10T08:35:14.951Z,9.07
2018-11-10T08:37:44.518Z,8.53
2018-11-10T08:40:15.418Z,9.83
2018-11-10T08:42:44.968Z,8.48
2018-11-10T08:45:15.300Z,8.75
2018-11-10T08:47:45.210Z,9.75
2018-11-10T08:50:16.438Z,7.60
2018-11-10T08:52:45.922Z,9.88
2018-11-10T08:55:15.363Z,7.92
2018-11-10T08:57:44.978Z,8.45
2018-11-10T09:00:14.408Z,7.72
2018-11-10T09:02:43.908Z,8.23
2018-11-10T09:05:13.659Z,8.50
2018-11-10T09:07:43.332Z,7.22
2018-11-10T09:10:15.085Z,6.65
2018-11-10T09:12:44.731Z,7.73
2018-11-10T09:15:15.496Z,7.33
2018-11-10T09:17:45.547Z,6.80
2018-11-10T09:20:16.422Z,7.92
2018-11-10T09:22:46.101Z,7.70
2018-11-10T09:25:17.106Z,7.53
2018-11-10T09:27:46.822Z,7.03
2018-11-10T09:30:18.307Z,7.40
2018-11-10T09:32:47.777Z,7.33
2018-11-10T09:35:17.313Z,7.70
2018-11-10T09:37:46.876Z,7.50
2018-11-10T09:40:17.241Z,8.33
2018-11-10T09:42:46.955Z,6.63
2018-11-10T09:45:17.662Z,7.05
2018-11-10T09:47:47.172Z,6.12
2018-11-10T09:50:19.964Z,8.18
2018-11-10T09:52:49.565Z,6.70
2018-11-10T09:55:19.480Z,8.35
2018-11-10T09:57:49.195Z,6.60
2018-11-10T10:00:21.000Z,7.28
2018-11-10T10:02:51.091Z,6.47
2018-11-10T10:05:20.566Z,6.92
2018-11-10T10:07:50.123Z,6.55
2018-11-10T10:10:19.923Z,6.05
2018-11-10T10:12:49.460Z,5.40
2018-11-10T10:15:19.714Z,6.10
2018-11-10T10:17:49.367Z,6.03
2018-11-10T10:20:20.869Z,5.17
2018-11-10T10:22:51.245Z,5.55
2018-11-10T10:25:21.188Z,5.78
2018-11-10T10:27:51.323Z,6.13
2018-11-10T10:30:23.246Z,5.07
2018-11-10T10:32:52.993Z,5.80
2018-11-10T10:35:22.848Z,5.17
2018-11-10T10:37:52.924Z,5.15
2018-11-10T10:40:23.665Z,5.00
2018-11-10T10:42:53.568Z,4.90
2018-11-10T10:45:24.601Z,5.60
2018-11-10T10:47:54.316Z,5.43
2018-11-10T10:50:24.744Z,5.42
2018-11-10T10:52:54.468Z,4.62
2018-11-10T10:55:24.378Z,5.28
2018-11-10T10:57:54.364Z,4.83
2018-11-10T11:00:29.152Z,5.60
2018-11-10T11:03:02.980Z,5.22
2018-11-10T11:05:37.740Z,4.47
2018-11-10T11:08:07.595Z,5.55
2018-11-10T11:10:37.660Z,5.10
2018-11-10T11:13:07.475Z,4.00
2018-11-10T11:15:37.512Z,4.40
2018-11-10T11:18:07.522Z,4.53
2018-11-10T11:20:37.650Z,3.65
2018-11-10T11:23:07.295Z,4.30
2018-11-10T11:25:36.807Z,4.30
2018-11-10T11:28:06.557Z,4.30
2018-11-10T11:30:36.142Z,3.90
2018-11-10T11:33:06.259Z,4.55
2018-11-10T11:35:35.849Z,4.58
2018-11-10T11:38:05.553Z,3.83
2018-11-10T11:40:35.111Z,4.60
2018-11-10T11:43:05.457Z,3.70
2018-11-10T11:45:35.095Z,4.90
2018-11-10T11:48:04.757Z,3.80
2018-11-10T11:50:34.325Z,4.28
2018-11-10T11:53:04.494Z,4.00
2018-11-10T11:55:34.170Z,4.05
2018-11-10T11:58:03.837Z,4.37
2018-11-10T12:00:33.304Z,3.80
2018-11-10T12:03:02.900Z,3.40
2018-11-10T12:05:32.335Z,4.83
2018-11-10T12:08:01.953Z,3.58
2018-11-10T12:10:31.573Z,3.90
2018-11-10T12:13:01.120Z,3.83
2018-11-10T12:15:30.972Z,4.20
2018-11-10T12:18:00.412Z,3.80
2018-11-10T12:20:29.963Z,3.22
2018-11-10T12:22:59.429Z,4.80
2018-11-10T12:25:29.097Z,4.33
2018-11-10T12:27:58.629Z,3.80
2018-11-10T12:30:28.855Z,3.70
2018-11-10T12:32:58.368Z,4.17
2018-11-10T12:35:27.977Z,4.00
2018-11-10T12:37:57.811Z,4.10
2018-11-10T12:40:27.315Z,4.67
2018-11-10T12:42:56.854Z,4.20
2018-11-10T12:45:26.361Z,4.70
2018-11-10T12:47:57.262Z,3.70
2018-11-10T12:50:26.731Z,4.23
2018-11-10T12:52:56.244Z,3.70
2018-11-10T12:55:25.783Z,4.40
2018-11-10T12:57:56.870Z,3.65
2018-11-10T13:00:26.281Z,4.72
2018-11-10T13:02:55.747Z,4.70
2018-11-10T13:05:25.529Z,3.50
2018-11-10T13:07:56.178Z,4.35
2018-11-10T13:10:25.671Z,4.25
2018-11-10T13:12:55.256Z,3.87
2018-11-10T13:15:24.747Z,3.77
2018-11-10T13:17:56.671Z,3.40
2018-11-10T13:20:26.419Z,3.62
2018-11-10T13:22:55.903Z,2.70
2018-11-10T13:25:25.455Z,3.90
2018-11-10T13:27:55.392Z,3.10
2018-11-10T13:30:24.846Z,3.70
2018-11-10T13:32:54.348Z,3.70
2018-11-10T13:35:23.986Z,3.90
2018-11-10T13:37:53.476Z,3.70
2018-11-10T13:40:22.926Z,4.03
2018-11-10T13:42:52.384Z,3.37
2018-11-10T13:45:22.293Z,4.10
2018-11-10T13:47:51.729Z,4.00
2018-11-10T13:50:21.296Z,2.80
2018-11-10T13:52:51.131Z,3.35
2018-11-10T13:55:20.513Z,3.33
2018-11-10T13:57:49.994Z,3.40
2018-11-10T14:00:19.896Z,3.93
2018-11-10T14:02:49.429Z,3.98
2018-11-10T14:05:18.856Z,3.80
2018-11-10T14:07:48.284Z,3.40
2018-11-10T14:10:17.840Z,4.12
2018-11-10T14:12:47.540Z,3.12
2018-11-10T14:15:17.025Z,4.35
2018-11-10T14:17:46.528Z,3.70
2018-11-10T14:20:16.729Z,3.93
2018-11-10T14:22:46.987Z,3.70
2018-11-10T14:25:17.099Z,3.53
2018-11-10T14:27:46.835Z,4.10
2018-11-10T14:30:17.504Z,4.50
2018-11-10T14:32:47.322Z,3.53
2018-11-10T14:35:16.808Z,3.67
2018-11-10T14:37:46.279Z,4.40
2018-11-10T14:40:17.194Z,4.22
2018-11-10T14:42:49.042Z,3.70
2018-11-10T14:45:19.699Z,4.22
2018-11-10T14:47:49.393Z,3.60
2018-11-10T14:50:19.991Z,3.87
2018-11-10T14:52:49.589Z,4.20
2018-11-10T14:55:18.925Z,3.98
2018-11-10T14:57:50.800Z,4.15
2018-11-10T15:00:21.828Z,5.15
2018-11-10T15:02:51.413Z,5.20
2018-11-10T15:05:21.308Z,5.08
2018-11-10T15:07:50.862Z,4.78
2018-11-10T15:10:20.840Z,3.75
2018-11-10T15:12:50.604Z,3.95
2018-11-10T15:15:20.500Z,4.20
2018-11-10T15:17:50.092Z,4.35
2018-11-10T15:20:20.293Z,4.33
2018-11-10T15:22:49.885Z,4.10
2018-11-10T15:25:20.999Z,3.95
2018-11-10T15:27:50.426Z,4.92
2018-11-10T15:30:21.149Z,4.97
2018-11-10T15:32:51.015Z,4.50
2018-11-10T15:35:21.921Z,4.50
2018-11-10T15:37:52.481Z,4.87
2018-11-10T15:40:22.567Z,4.90
2018-11-10T15:42:52.127Z,5.60
2018-11-10T15:45:22.827Z,5.35
2018-11-10T15:47:53.174Z,5.22
2018-11-10T15:50:22.819Z,4.67
2018-11-10T15:52:52.419Z,5.12
2018-11-10T15:55:22.697Z,6.33
2018-11-10T15:57:55.104Z,6.17
2018-11-10T16:00:25.604Z,5.10
2018-11-10T16:02:55.212Z,5.83
2018-11-10T16:05:25.104Z,7.17
2018-11-10T16:07:57.573Z,6.15
2018-11-10T16:10:27.622Z,6.75
2018-11-10T16:12:57.240Z,6.00
2018-11-10T16:15:27.245Z,5.75
2018-11-10T16:17:58.800Z,6.42
2018-11-10T16:20:29.454Z,5.72
2018-11-10T16:22:59.661Z,6.90
2018-11-10T16:25:36.444Z,6.20
2018-11-10T16:28:06.198Z,6.40
2018-11-10T16:30:36.210Z,7.30
2018-11-10T16:33:06.934Z,6.95
2018-11-10T16:35:37.285Z,6.30
2018-11-10T16:38:07.124Z,6.72
2018-11-10T16:40:36.817Z,6.72
2018-11-10T16:43:06.961Z,6.40
2018-11-10T16:45:36.874Z,7.22
2018-11-10T16:48:08.342Z,7.83
2018-11-10T16:50:38.238Z,7.50
2018-11-10T16:53:07.935Z,7.28
2018-11-10T16:55:37.945Z,6.75
2018-11-10T16:58:08.088Z,6.53
2018-11-10T17:00:38.088Z,7.08
2018-11-10T17:03:07.706Z,6.70
2018-11-10T17:05:37.355Z,7.30
2018-11-10T17:08:07.122Z,7.63
2018-11-10T17:10:36.753Z,6.85
2018-11-10T17:13:07.705Z,5.85
2018-11-10T17:15:40.100Z,7.92
2018-11-10T17:18:09.828Z,7.77
2018-11-10T17:20:40.190Z,7.17
2018-11-10T17:23:11.277Z,7.70
2018-11-10T17:25:41.106Z,7.90
2018-11-10T17:28:11.741Z,7.42
2018-11-10T17:33:51.467Z,8.08
2018-11-10T17:36:21.192Z,8.90
2018-11-10T17:38:51.299Z,8.10
2018-11-10T17:41:21.355Z,8.40
2018-11-10T17:43:53.468Z,7.62
2018-11-10T17:46:23.846Z,8.20
2018-11-10T17:48:53.749Z,8.05
2018-11-10T17:51:23.478Z,7.87
2018-11-10T17:53:53.327Z,8.33
2018-11-10T17:56:23.821Z,8.68
2018-11-10T17:58:54.554Z,8.58
2018-11-10T18:01:24.463Z,7.85
2018-11-10T18:03:54.369Z,7.92
2018-11-10T18:06:24.385Z,8.93
2018-11-10T18:08:54.125Z,8.97
2018-11-10T18:11:24.328Z,9.20
2018-11-10T18:13:54.283Z,9.20
2018-11-10T18:16:24.202Z,8.85
2018-11-10T18:18:54.125Z,9.45
2018-11-10T18:21:24.238Z,8.00
2018-11-10T18:23:54.185Z,7.95
2018-11-10T18:26:24.439Z,10.58
2018-11-10T18:28:54.520Z,7.50
2018-11-10T18:31:24.717Z,8.10
2018-11-10T18:33:55.752Z,7.72
2018-11-10T18:36:30.638Z,8.93
2018-11-10T18:39:05.248Z,7.37
2018-11-10T18:41:42.857Z,7.75
2018-11-10T18:44:12.819Z,7.67
2018-11-10T18:46:42.648Z,8.77
2018-11-10T18:49:24.455Z,7.80
2018-11-10T18:51:54.273Z,8.03
2018-11-10T18:54:30.118Z,7.47
2018-11-10T18:56:59.679Z,8.40
2018-11-10T18:59:29.278Z,7.87
2018-11-10T19:01:58.955Z,7.97
2018-11-10T19:04:28.723Z,8.87
2018-11-10T19:06:58.268Z,8.30
2018-11-10T19:09:27.915Z,6.90
2018-11-10T19:11:57.470Z,7.72
2018-11-10T19:14:27.038Z,8.93
2018-11-10T19:16:58.631Z,8.05
2018-11-10T19:19:28.443Z,7.65
2018-11-10T19:21:58.048Z,8.10
2018-11-10T19:24:27.684Z,7.60
2018-11-10T19:26:57.277Z,8.25
2018-11-10T19:29:27.063Z,8.33
2018-11-10T19:31:56.858Z,8.28
2018-11-10T19:34:26.548Z,7.40
2018-11-10T19:36:56.146Z,7.75
2018-11-10T19:39:25.711Z,7.47
2018-11-10T19:41:55.205Z,7.90
2018-11-10T19:44:24.750Z,7.90
2018-11-10T19:46:54.409Z,6.87
2018-11-10T19:49:23.993Z,7.62
2018-11-10T19:51:53.840Z,7.25
2018-11-10T19:54:23.286Z,7.53
2018-11-10T19:56:52.982Z,8.03
2018-11-10T19:59:22.507Z,6.75
2018-11-10T20:01:52.206Z,7.22
2018-11-10T20:04:21.938Z,6.50
2018-11-10T20:06:51.509Z,7.80
2018-11-10T20:09:21.205Z,6.80
2018-11-10T20:11:50.740Z,6.73
2018-11-10T20:14:20.663Z,6.80
2018-11-10T20:16:50.113Z,6.30
2018-11-10T20:19:19.754Z,5.72
2018-11-10T20:21:49.384Z,5.92
2018-11-10T20:24:19.315Z,6.10
2018-11-10T20:26:48.971Z,6.63
2018-11-10T20:29:18.501Z,5.80
2018-11-10T20:31:48.139Z,5.60
2018-11-10T20:34:17.704Z,7.12
2018-11-10T20:36:47.449Z,6.12
2018-11-10T20:39:17.082Z,5.80
2018-11-10T20:41:46.556Z,6.53
2018-11-10T20:44:16.133Z,5.92
2018-11-10T20:46:45.822Z,5.85
2018-11-10T20:49:15.507Z,5.93
2018-11-10T20:51:45.274Z,5.47
2018-11-10T20:54:14.891Z,5.90
2018-11-10T20:56:44.703Z,5.42
2018-11-10T20:59:14.384Z,6.03
2018-11-10T21:01:43.925Z,5.55
2018-11-10T21:04:13.800Z,5.80
2018-11-10T21:06:43.475Z,5.10
2018-11-10T21:09:14.018Z,5.87
2018-11-10T21:11:43.705Z,4.55
2018-11-10T21:14:13.375Z,5.50
2018-11-10T21:16:43.084Z,4.80
2018-11-10T21:19:12.731Z,4.60
2018-11-10T21:21:42.284Z,4.60
2018-11-10T21:24:11.939Z,4.65
2018-11-10T21:26:41.442Z,4.30
2018-11-10T21:29:11.021Z,4.95
2018-11-10T21:31:40.596Z,5.33
2018-11-10T21:34:10.392Z,4.07
2018-11-10T21:36:39.917Z,4.65
2018-11-10T21:39:11.495Z,5.37
2018-11-10T21:41:41.085Z,4.75
2018-11-10T21:44:10.623Z,4.37
2018-11-10T21:46:40.269Z,5.15
2018-11-10T21:49:09.937Z,4.00
2018-11-10T21:51:39.456Z,4.50
2018-11-10T21:54:09.023Z,4.75
2018-11-10T21:56:38.625Z,4.53
2018-11-10T21:59:08.167Z,5.20
2018-11-10T22:01:37.890Z,3.25
2018-11-10T22:04:07.526Z,3.33
2018-11-10T22:06:37.088Z,4.10
2018-11-10T22:09:10.971Z,4.67
2018-11-10T22:11:41.813Z,4.60
2018-11-10T22:14:11.333Z,4.37
2018-11-10T22:16:40.911Z,4.50
2018-11-10T22:19:10.640Z,4.80
2018-11-10T22:21:40.484Z,4.77
2018-11-10T22:24:09.973Z,3.92
2018-11-10T22:26:39.463Z,4.33
2018-11-10T22:29:09.015Z,3.80
2018-11-10T22:31:38.567Z,4.37
2018-11-10T22:34:08.199Z,3.90
2018-11-10T22:36:37.700Z,4.33
2018-11-10T22:39:12.540Z,4.10
2018-11-10T22:41:42.072Z,4.47
2018-11-10T22:44:11.568Z,4.08
2018-11-10T22:46:41.070Z,4.10
2018-11-10T22:49:10.536Z,4.22
2018-11-10T22:51:40.256Z,3.55
2018-11-10T22:54:09.745Z,4.30
2018-11-10T22:56:39.246Z,4.27
2018-11-10T22:59:08.936Z,3.90
2018-11-10T23:01:38.463Z,4.57
2018-11-10T23:04:08.149Z,3.85
2018-11-10T23:06:37.639Z,4.25
2018-11-10T23:09:09.603Z,3.00
2018-11-10T23:11:39.129Z,3.63
2018-11-10T23:14:08.662Z,3.45
2018-11-10T23:16:38.249Z,3.52
2018-11-10T23:19:07.880Z,3.40
2018-11-10T23:21:37.388Z,4.15
2018-11-10T23:24:06.960Z,3.30
2018-11-10T23:26:36.536Z,4.05
2018-11-10T23:29:06.255Z,3.40
2018-11-10T23:31:35.739Z,3.80
2018-11-10T23:34:05.542Z,3.30
2018-11-10T23:36:35.107Z,3.95
2018-11-10T23:39:07.063Z,3.90
2018-11-10T23:41:36.614Z,4.00
2018-11-10T23:44:06.294Z,4.07
2018-11-10T23:46:35.874Z,3.35
2018-11-10T23:49:05.574Z,3.80
2018-11-10T23:51:35.253Z,3.40
2018-11-10T23:54:04.832Z,3.58
2018-11-10T23:56:34.321Z,3.50
2018-11-10T23:59:03.851Z,3.85
